createdAt,value
2017-08-06T00:00:37.494Z,101516.64
2017-08-06T00:03:05.080Z,101519.41
2017-08-06T00:05:32.702Z,101519.84
2017-08-06T00:08:00.315Z,101521.84
2017-08-06T00:10:27.971Z,101520.78
2017-08-06T00:12:55.582Z,101527.28
2017-08-06T00:15:23.180Z,101525.03
2017-08-06T00:17:50.816Z,101527.88
2017-08-06T00:20:18.494Z,101532.20
2017-08-06T00:22:46.162Z,101532.36
2017-08-06T00:25:13.789Z,101531.59
2017-08-06T00:27:41.374Z,101536.91
2017-08-06T00:30:09.014Z,101540.44
2017-08-06T00:32:36.616Z,101541.94
2017-08-06T00:35:04.315Z,101547.88
2017-08-06T00:37:31.919Z,101544.20
2017-08-06T00:39:59.523Z,101549.25
2017-08-06T00:42:27.142Z,101545.75
2017-08-06T00:44:54.738Z,101551.82
2017-08-06T00:47:22.376Z,101544.68
2017-08-06T00:49:49.966Z,101541.70
2017-08-06T00:52:17.586Z,101546.70
2017-08-06T00:54:45.187Z,101551.83
2017-08-06T00:57:12.838Z,101550.23
2017-08-06T00:59:40.487Z,101560.48
2017-08-06T01:02:08.790Z,101560.48
2017-08-06T01:04:36.387Z,101564.27
2017-08-06T01:07:04.011Z,101564.67
2017-08-06T01:09:31.605Z,101569.38
2017-08-06T01:11:59.238Z,101569.79
2017-08-06T01:14:26.834Z,101570.88
2017-08-06T01:16:54.463Z,101574.00
2017-08-06T01:19:22.047Z,101577.50
2017-08-06T01:21:49.702Z,101576.29
2017-08-06T01:24:17.300Z,101577.13
2017-08-06T01:26:44.939Z,101583.61
2017-08-06T01:29:12.530Z,101591.20
2017-08-06T01:31:40.150Z,101586.73
2017-08-06T01:34:07.778Z,101584.97
2017-08-06T01:36:35.393Z,101587.98
2017-08-06T01:39:02.979Z,101591.45
2017-08-06T01:41:30.598Z,101586.73
2017-08-06T01:43:58.202Z,101589.58
2017-08-06T01:46:25.830Z,101592.42
2017-08-06T01:48:53.447Z,101594.98
2017-08-06T01:51:21.098Z,101596.99
2017-08-06T01:53:48.703Z,101592.28
2017-08-06T01:56:16.342Z,101599.17
2017-08-06T01:58:43.974Z,101608.34
2017-08-06T02:01:11.567Z,101602.28
2017-08-06T02:03:39.230Z,101607.55
2017-08-06T02:06:06.835Z,101604.98
2017-08-06T02:08:34.477Z,101602.70
2017-08-06T02:11:02.075Z,101600.66
2017-08-06T02:13:29.722Z,101610.25
2017-08-06T02:15:57.323Z,101609.97
2017-08-06T02:18:24.950Z,101610.66
2017-08-06T02:20:52.600Z,101621.47
2017-08-06T02:23:20.258Z,101622.02
2017-08-06T02:25:47.867Z,101625.51
2017-08-06T02:28:15.466Z,101629.70
2017-08-06T02:30:43.107Z,101625.78
2017-08-06T02:33:10.707Z,101626.72
2017-08-06T02:35:38.362Z,101628.61
2017-08-06T02:38:05.980Z,101634.00
2017-08-06T02:40:33.619Z,101634.14
2017-08-06T02:43:01.218Z,101631.86
2017-08-06T02:45:28.992Z,101633.62
2017-08-06T02:47:56.594Z,101634.97
2017-08-06T02:50:24.220Z,101637.38
2017-08-06T02:52:51.831Z,101631.03
2017-08-06T02:55:19.531Z,101635.91
2017-08-06T02:57:47.126Z,101637.66
2017-08-06T03:00:14.747Z,101634.41
2017-08-06T03:02:42.362Z,101638.46
2017-08-06T03:05:09.995Z,101635.34
2017-08-06T03:07:37.790Z,101641.44
2017-08-06T03:10:05.412Z,101636.71
2017-08-06T03:12:33.034Z,101642.80
2017-08-06T03:15:00.636Z,101641.31
2017-08-06T03:17:28.262Z,101642.39
2017-08-06T03:19:55.855Z,101643.75
2017-08-06T03:22:23.494Z,101641.72
2017-08-06T03:24:51.086Z,101648.99
2017-08-06T03:27:18.723Z,101650.89
2017-08-06T03:29:46.327Z,101660.62
2017-08-06T03:32:13.956Z,101658.05
2017-08-06T03:34:42.759Z,101661.02
2017-08-06T03:37:10.386Z,101661.83
2017-08-06T03:39:37.994Z,101664.41
2017-08-06T03:42:05.628Z,101672.50
2017-08-06T03:44:33.230Z,101674.23
2017-08-06T03:47:00.859Z,101673.85
2017-08-06T03:49:28.451Z,101671.40
2017-08-06T03:51:56.087Z,101673.30
2017-08-06T03:54:23.694Z,101671.55
2017-08-06T03:56:51.319Z,101671.95
2017-08-06T03:59:18.926Z,101675.45
2017-08-06T04:01:46.658Z,101688.53
2017-08-06T04:04:14.234Z,101682.21
2017-08-06T04:06:41.870Z,101682.62
2017-08-06T04:09:09.470Z,101691.09
2017-08-06T04:11:37.094Z,101692.89
2017-08-06T04:14:04.690Z,101692.48
2017-08-06T04:16:32.330Z,101702.20
2017-08-06T04:18:59.931Z,101702.99
2017-08-06T04:21:27.579Z,101704.89
2017-08-06T04:23:55.222Z,101702.45
2017-08-06T04:26:22.861Z,101713.12
2017-08-06T04:28:50.473Z,101711.77
2017-08-06T04:31:18.098Z,101714.48
2017-08-06T04:33:45.710Z,101714.20
2017-08-06T04:36:13.362Z,101719.09
2017-08-06T04:38:40.966Z,101717.45
2017-08-06T04:41:08.602Z,101721.77
2017-08-06T04:43:36.207Z,101717.58
2017-08-06T04:46:03.838Z,101720.94
2017-08-06T04:48:31.434Z,101719.72
2017-08-06T04:50:59.053Z,101724.84
2017-08-06T04:53:26.656Z,101729.73
2017-08-06T04:55:54.282Z,101735.27
2017-08-06T04:58:21.886Z,101736.86
2017-08-06T05:00:49.511Z,101738.34
2017-08-06T05:03:17.199Z,101737.41
2017-08-06T05:05:44.823Z,101740.66
2017-08-06T05:08:12.433Z,101745.34
2017-08-06T05:10:40.107Z,101754.80
2017-08-06T05:13:07.711Z,101750.75
2017-08-06T05:15:35.337Z,101753.86
2017-08-06T05:18:02.939Z,101755.91
2017-08-06T05:20:30.546Z,101761.18
2017-08-06T05:22:58.149Z,101754.58
2017-08-06T05:25:25.783Z,101761.60
2017-08-06T05:27:53.402Z,101767.58
2017-08-06T05:30:21.027Z,101766.63
2017-08-06T05:32:48.662Z,101772.03
2017-08-06T05:35:16.293Z,101776.00
2017-08-06T05:37:43.890Z,101780.01
2017-08-06T05:40:11.522Z,101787.55
2017-08-06T05:42:39.130Z,101785.63
2017-08-06T05:45:06.780Z,101789.70
2017-08-06T05:47:34.382Z,101787.02
2017-08-06T05:50:01.987Z,101791.08
2017-08-06T05:52:29.696Z,101790.91
2017-08-06T05:54:57.297Z,101792.00
2017-08-06T05:57:24.939Z,101792.66
2017-08-06T05:59:52.650Z,101799.16
2017-08-06T06:02:20.238Z,101796.16
2017-08-06T06:04:47.883Z,101810.82
2017-08-06T06:07:15.482Z,101809.53
2017-08-06T06:09:43.098Z,101817.23
2017-08-06T06:12:10.744Z,101819.80
2017-08-06T06:14:38.337Z,101817.88
2017-08-06T06:17:05.977Z,101820.59
2017-08-06T06:19:33.591Z,101824.01
2017-08-06T06:22:01.219Z,101819.71
2017-08-06T06:24:28.832Z,101823.27
2017-08-06T06:26:56.463Z,101821.34
2017-08-06T06:29:24.076Z,101822.91
2017-08-06T06:31:51.778Z,101825.38
2017-08-06T06:34:19.377Z,101831.98
2017-08-06T06:36:47.114Z,101836.17
2017-08-06T06:39:14.717Z,101845.06
2017-08-06T06:41:42.355Z,101846.31
2017-08-06T06:44:09.989Z,101846.75
2017-08-06T06:46:37.603Z,101843.94
2017-08-06T06:49:05.230Z,101845.84
2017-08-06T06:51:32.831Z,101854.14
2017-08-06T06:54:00.467Z,101853.63
2017-08-06T06:56:28.063Z,101853.80
2017-08-06T06:58:55.695Z,101858.69
2017-08-06T07:01:23.323Z,101862.47
2017-08-06T07:03:50.947Z,101858.14
2017-08-06T07:06:18.542Z,101859.50
2017-08-06T07:08:46.166Z,101863.27
2017-08-06T07:11:13.790Z,101870.45
2017-08-06T07:13:41.412Z,101868.98
2017-08-06T07:16:09.118Z,101877.80
2017-08-06T07:18:36.854Z,101876.80
2017-08-06T07:21:04.477Z,101880.45
2017-08-06T07:23:32.134Z,101882.74
2017-08-06T07:25:59.818Z,101878.30
2017-08-06T07:28:27.442Z,101881.82
2017-08-06T07:30:55.043Z,101880.09
2017-08-06T07:33:22.682Z,101891.83
2017-08-06T07:35:50.367Z,101886.15
2017-08-06T07:38:17.995Z,101890.88
2017-08-06T07:40:45.599Z,101889.98
2017-08-06T07:43:13.244Z,101892.14
2017-08-06T07:45:40.854Z,101886.47
2017-08-06T07:48:08.478Z,101892.30
2017-08-06T07:50:36.084Z,101891.50
2017-08-06T07:53:03.734Z,101887.84
2017-08-06T07:55:31.343Z,101889.32
2017-08-06T07:57:58.998Z,101885.80
2017-08-06T08:00:26.590Z,101883.78
2017-08-06T08:02:54.210Z,101887.84
2017-08-06T08:05:21.841Z,101890.69
2017-08-06T08:07:49.459Z,101890.55
2017-08-06T08:10:17.100Z,101892.70
2017-08-06T08:12:44.686Z,101889.30
2017-08-06T08:15:12.325Z,101898.92
2017-08-06T08:17:39.929Z,101888.27
2017-08-06T08:20:07.547Z,101885.24
2017-08-06T08:22:35.177Z,101887.67
2017-08-06T08:25:02.804Z,101891.20
2017-08-06T08:27:30.401Z,101893.77
2017-08-06T08:29:58.174Z,101886.82
2017-08-06T08:32:25.789Z,101890.95
2017-08-06T08:34:53.414Z,101886.44
2017-08-06T08:37:21.046Z,101892.08
2017-08-06T08:39:48.667Z,101890.99
2017-08-06T08:42:16.266Z,101882.72
2017-08-06T08:44:43.911Z,101885.16
2017-08-06T08:47:11.507Z,101892.91
2017-08-06T08:49:39.135Z,101893.97
2017-08-06T08:52:06.734Z,101898.98
2017-08-06T08:54:34.343Z,101902.82
2017-08-06T08:57:01.983Z,101900.63
2017-08-06T08:59:29.606Z,101901.13
2017-08-06T09:01:57.215Z,101903.70
2017-08-06T09:04:24.839Z,101903.29
2017-08-06T09:06:52.449Z,101901.63
2017-08-06T09:09:20.174Z,101905.80
2017-08-06T09:11:47.778Z,101909.81
2017-08-06T09:14:15.395Z,101911.67
2017-08-06T09:16:42.997Z,101910.46
2017-08-06T09:19:10.665Z,101902.38
2017-08-06T09:21:38.288Z,101903.77
2017-08-06T09:24:05.904Z,101903.09
2017-08-06T09:26:33.616Z,101908.20
2017-08-06T09:29:01.214Z,101911.59
2017-08-06T09:31:28.842Z,101917.80
2017-08-06T09:33:56.440Z,101916.27
2017-08-06T09:36:24.070Z,101911.09
2017-08-06T09:38:51.654Z,101913.11
2017-08-06T09:41:19.291Z,101909.66
2017-08-06T09:43:46.890Z,101898.16
2017-08-06T09:46:14.502Z,101906.00
2017-08-06T09:48:42.095Z,101911.11
2017-08-06T09:51:09.730Z,101903.94
2017-08-06T09:53:37.326Z,101901.56
2017-08-06T09:56:04.957Z,101906.05
2017-08-06T09:58:32.607Z,101902.53
2017-08-06T10:01:00.246Z,101896.32
2017-08-06T10:03:27.843Z,101903.66
2017-08-06T10:05:55.464Z,101903.95
2017-08-06T10:08:23.066Z,101896.23
2017-08-06T10:10:50.710Z,101887.70
2017-08-06T10:13:18.290Z,101898.10
2017-08-06T10:15:46.522Z,101893.49
2017-08-06T10:18:14.109Z,101887.41
2017-08-06T10:20:41.826Z,101889.12
2017-08-06T10:23:09.428Z,101888.91
2017-08-06T10:25:37.026Z,101889.40
2017-08-06T10:28:04.734Z,101883.57
2017-08-06T10:30:32.361Z,101882.92
2017-08-06T10:32:59.963Z,101879.36
2017-08-06T10:35:27.584Z,101875.59
2017-08-06T10:37:55.198Z,101879.09
2017-08-06T10:40:22.821Z,101874.66
2017-08-06T10:42:50.438Z,101873.43
2017-08-06T10:45:18.079Z,101873.02
2017-08-06T10:47:45.806Z,101862.69
2017-08-06T10:50:13.437Z,101858.78
2017-08-06T10:52:41.062Z,101861.72
2017-08-06T10:55:08.714Z,101863.28
2017-08-06T10:57:36.339Z,101852.20
2017-08-06T11:00:03.939Z,101858.25
2017-08-06T11:02:31.579Z,101852.86
2017-08-06T11:04:59.170Z,101852.77
2017-08-06T11:07:26.796Z,101856.86
2017-08-06T11:09:54.391Z,101854.25
2017-08-06T11:12:22.037Z,101850.26
2017-08-06T11:14:49.644Z,101848.73
2017-08-06T11:17:17.267Z,101842.72
2017-08-06T11:19:44.923Z,101849.70
2017-08-06T11:22:12.550Z,101846.06
2017-08-06T11:24:40.155Z,101842.50
2017-08-06T11:27:07.774Z,101836.28
2017-08-06T11:29:35.383Z,101839.44
2017-08-06T11:32:03.000Z,101839.20
2017-08-06T11:34:30.578Z,101842.44
2017-08-06T11:36:58.235Z,101835.19
2017-08-06T11:39:25.822Z,101845.77
2017-08-06T11:41:53.481Z,101833.81
2017-08-06T11:44:21.206Z,101834.09
2017-08-06T11:46:48.861Z,101836.91
2017-08-06T11:49:16.446Z,101833.19
2017-08-06T11:51:44.082Z,101826.98
2017-08-06T11:54:11.774Z,101826.87
2017-08-06T11:56:39.415Z,101821.25
2017-08-06T11:59:07.039Z,101823.78
2017-08-06T12:01:34.676Z,101827.10
2017-08-06T12:04:02.294Z,101828.00
2017-08-06T12:06:29.910Z,101824.43
2017-08-06T12:08:57.520Z,101833.08
2017-08-06T12:11:25.158Z,101829.04
2017-08-06T12:13:52.746Z,101827.98
2017-08-06T12:16:20.358Z,101828.66
2017-08-06T12:18:47.984Z,101826.42
2017-08-06T12:21:15.642Z,101825.38
2017-08-06T12:23:43.252Z,101831.24
2017-08-06T12:26:10.836Z,101829.06
2017-08-06T12:28:38.538Z,101825.78
2017-08-06T12:31:06.158Z,101827.40
2017-08-06T12:33:33.759Z,101822.63
2017-08-06T12:36:01.402Z,101824.64
2017-08-06T12:38:29.001Z,101832.88
2017-08-06T12:40:56.615Z,101833.06
2017-08-06T12:43:24.303Z,101827.44
2017-08-06T12:45:51.920Z,101829.89
2017-08-06T12:48:19.530Z,101822.06
2017-08-06T12:50:47.215Z,101819.47
2017-08-06T12:53:14.842Z,101816.48
2017-08-06T12:55:42.511Z,101830.84
2017-08-06T12:58:10.114Z,101822.52
2017-08-06T13:00:56.154Z,101826.84
2017-08-06T13:03:23.775Z,101829.95
2017-08-06T13:05:51.399Z,101825.97
2017-08-06T13:08:18.991Z,101820.98
2017-08-06T13:10:46.635Z,101829.14
2017-08-06T13:13:14.242Z,101823.43
2017-08-06T13:15:41.844Z,101824.61
2017-08-06T13:18:09.463Z,101825.44
2017-08-06T13:20:37.056Z,101821.28
2017-08-06T13:23:04.674Z,101823.91
2017-08-06T13:25:32.276Z,101814.05
2017-08-06T13:27:59.900Z,101812.70
2017-08-06T13:30:27.499Z,101802.69
2017-08-06T13:32:55.119Z,101803.34
2017-08-06T13:35:22.714Z,101804.59
2017-08-06T13:37:50.350Z,101799.28
2017-08-06T13:40:17.954Z,101802.16
2017-08-06T13:42:45.575Z,101808.28
2017-08-06T13:45:13.202Z,101809.65
2017-08-06T13:47:40.900Z,101803.93
2017-08-06T13:50:08.510Z,101805.50
2017-08-06T13:52:36.251Z,101797.34
2017-08-06T13:55:03.857Z,101801.11
2017-08-06T13:57:31.476Z,101803.88
2017-08-06T13:59:59.093Z,101806.23
2017-08-06T14:02:26.809Z,101806.44
2017-08-06T14:04:54.411Z,101809.45
2017-08-06T14:07:22.025Z,101803.78
2017-08-06T14:09:49.632Z,101805.05
2017-08-06T14:12:17.259Z,101809.53
2017-08-06T14:14:44.847Z,101808.28
2017-08-06T14:17:12.692Z,101812.98
2017-08-06T14:19:40.306Z,101814.78
2017-08-06T14:22:08.839Z,101808.05
2017-08-06T14:24:36.441Z,101811.43
2017-08-06T14:27:04.039Z,101800.95
2017-08-06T14:29:31.766Z,101803.56
2017-08-06T14:31:59.359Z,101802.22
2017-08-06T14:34:26.991Z,101795.69
2017-08-06T14:36:54.642Z,101797.79
2017-08-06T14:39:22.298Z,101790.20
2017-08-06T14:41:49.900Z,101792.12
2017-08-06T14:44:17.510Z,101800.39
2017-08-06T14:46:45.201Z,101795.57
2017-08-06T14:49:12.795Z,101790.39
2017-08-06T14:51:40.429Z,101788.58
2017-08-06T14:54:08.043Z,101792.72
2017-08-06T14:56:35.799Z,101794.56
2017-08-06T14:59:03.387Z,101786.66
2017-08-06T15:01:31.025Z,101791.52
2017-08-06T15:03:58.703Z,101786.03
2017-08-06T15:06:26.360Z,101787.02
2017-08-06T15:08:53.970Z,101789.13
2017-08-06T15:11:21.655Z,101789.83
2017-08-06T15:13:49.300Z,101793.31
2017-08-06T15:16:16.894Z,101789.14
2017-08-06T15:18:44.567Z,101796.41
2017-08-06T15:21:12.198Z,101799.75
2017-08-06T15:23:39.882Z,101793.30
2017-08-06T15:26:07.591Z,101797.92
2017-08-06T15:28:35.210Z,101797.30
2017-08-06T15:31:02.828Z,101786.39
2017-08-06T15:33:30.468Z,101791.88
2017-08-06T15:35:58.091Z,101792.98
2017-08-06T15:38:25.724Z,101791.72
2017-08-06T15:40:53.406Z,101794.81
2017-08-06T15:43:21.082Z,101799.64
2017-08-06T15:45:48.775Z,101794.01
2017-08-06T15:48:16.462Z,101796.07
2017-08-06T15:50:44.199Z,101793.91
2017-08-06T15:53:11.794Z,101792.36
2017-08-06T15:55:39.429Z,101786.33
2017-08-06T15:58:07.055Z,101787.45
2017-08-06T16:00:34.705Z,101785.70
2017-08-06T16:03:02.305Z,101784.36
2017-08-06T16:05:29.890Z,101784.64
2017-08-06T16:07:57.532Z,101786.91
2017-08-06T16:10:25.131Z,101788.01
2017-08-06T16:12:52.734Z,101786.70
2017-08-06T16:15:20.361Z,101783.45
2017-08-06T16:17:48.003Z,101782.48
2017-08-06T16:20:15.598Z,101788.19
2017-08-06T16:22:43.287Z,101789.18
2017-08-06T16:25:10.887Z,101784.66
2017-08-06T16:27:38.507Z,101784.84
2017-08-06T16:30:06.113Z,101780.77
2017-08-06T16:32:33.796Z,101769.92
2017-08-06T16:35:01.387Z,101773.95
2017-08-06T16:37:29.012Z,101778.89
2017-08-06T16:39:56.600Z,101772.83
2017-08-06T16:42:24.416Z,101772.06
2017-08-06T16:44:52.031Z,101770.50
2017-08-06T16:47:19.647Z,101770.95
2017-08-06T16:49:47.285Z,101765.28
2017-08-06T16:52:15.014Z,101763.72
2017-08-06T16:54:42.639Z,101764.50
2017-08-06T16:57:10.258Z,101764.16
2017-08-06T16:59:37.902Z,101766.28
2017-08-06T17:02:05.510Z,101765.33
2017-08-06T17:04:33.285Z,101760.80
2017-08-06T17:07:00.886Z,101756.05
2017-08-06T17:09:28.598Z,101754.45
2017-08-06T17:11:56.195Z,101755.39
2017-08-06T17:14:23.884Z,101757.16
2017-08-06T17:16:51.531Z,101754.33
2017-08-06T17:19:19.133Z,101756.50
2017-08-06T17:21:46.780Z,101754.16
2017-08-06T17:24:14.431Z,101753.50
2017-08-06T17:26:42.105Z,101755.21
2017-08-06T17:29:09.715Z,101752.48
2017-08-06T17:31:37.560Z,101754.83
2017-08-06T17:34:05.156Z,101754.95
2017-08-06T17:36:32.805Z,101745.92
2017-08-06T17:39:00.450Z,101751.73
2017-08-06T17:41:28.059Z,101749.17
2017-08-06T17:43:55.646Z,101748.45
2017-08-06T17:46:23.275Z,101746.45
2017-08-06T17:48:50.900Z,101752.95
2017-08-06T17:51:18.499Z,101749.89
2017-08-06T17:53:46.125Z,101748.58
2017-08-06T17:56:13.730Z,101751.66
2017-08-06T17:58:41.349Z,101751.48
2017-08-06T18:01:08.974Z,101752.06
2017-08-06T18:03:36.590Z,101744.65
2017-08-06T18:06:04.202Z,101737.46
2017-08-06T18:08:31.802Z,101739.31
2017-08-06T18:10:59.474Z,101739.27
2017-08-06T18:13:27.807Z,101739.59
2017-08-06T18:15:55.451Z,101742.15
2017-08-06T18:18:23.152Z,101743.14
2017-08-06T18:20:50.799Z,101741.55
2017-08-06T18:23:18.407Z,101742.82
2017-08-06T18:25:46.038Z,101745.30
2017-08-06T18:28:13.670Z,101741.55
2017-08-06T18:30:41.272Z,101734.03
2017-08-06T18:33:08.933Z,101739.49
2017-08-06T18:35:36.574Z,101740.89
2017-08-06T18:38:04.223Z,101739.32
2017-08-06T18:40:31.815Z,101731.53
2017-08-06T18:42:59.450Z,101739.57
2017-08-06T18:45:27.070Z,101739.14
2017-08-06T18:47:54.694Z,101740.76
2017-08-06T18:50:22.307Z,101743.44
2017-08-06T18:52:49.966Z,101742.41
2017-08-06T18:55:17.588Z,101741.92
2017-08-06T18:57:45.211Z,101739.65
2017-08-06T19:00:12.830Z,101743.24
2017-08-06T19:02:40.489Z,101747.94
2017-08-06T19:05:08.096Z,101744.38
2017-08-06T19:07:35.731Z,101747.03
2017-08-06T19:10:03.357Z,101750.27
2017-08-06T19:12:30.987Z,101747.08
2017-08-06T19:14:58.616Z,101755.85
2017-08-06T19:17:26.282Z,101753.10
2017-08-06T19:19:53.875Z,101746.59
2017-08-06T19:22:21.557Z,101749.14
2017-08-06T19:24:49.186Z,101742.21
2017-08-06T19:27:16.838Z,101750.25
2017-08-06T19:29:44.538Z,101752.64
2017-08-06T19:32:12.252Z,101760.53
2017-08-06T19:34:39.892Z,101761.31
2017-08-06T19:37:07.519Z,101761.69
2017-08-06T19:39:35.108Z,101765.58
2017-08-06T19:42:02.750Z,101764.78
2017-08-06T19:44:30.334Z,101770.28
2017-08-06T19:46:57.977Z,101777.84
2017-08-06T19:49:25.596Z,101771.53
2017-08-06T19:51:53.227Z,101774.41
2017-08-06T19:54:20.852Z,101778.48
2017-08-06T19:56:48.515Z,101770.11
2017-08-06T19:59:16.103Z,101771.86
2017-08-06T20:01:43.732Z,101763.48
2017-08-06T20:04:11.363Z,101767.94
2017-08-06T20:06:39.044Z,101771.60
2017-08-06T20:09:06.651Z,101772.37
2017-08-06T20:11:34.261Z,101770.04
2017-08-06T20:14:01.899Z,101769.52
2017-08-06T20:16:29.515Z,101769.41
2017-08-06T20:18:57.178Z,101765.83
2017-08-06T20:21:24.849Z,101771.74
2017-08-06T20:23:52.477Z,101772.51
2017-08-06T20:26:20.087Z,101774.92
2017-08-06T20:28:47.724Z,101768.16
2017-08-06T20:31:15.363Z,101773.23
2017-08-06T20:33:43.008Z,101770.16
2017-08-06T20:36:10.678Z,101778.35
2017-08-06T20:38:38.319Z,101771.01
2017-08-06T20:41:05.943Z,101767.96
2017-08-06T20:43:33.564Z,101765.09
2017-08-06T20:46:01.202Z,101768.38
2017-08-06T20:48:28.846Z,101772.26
2017-08-06T20:50:56.543Z,101767.48
2017-08-06T20:53:24.136Z,101768.84
2017-08-06T20:55:51.758Z,101765.24
2017-08-06T20:58:19.386Z,101767.14
2017-08-06T21:00:47.058Z,101760.41
2017-08-06T21:03:14.679Z,101763.39
2017-08-06T21:05:42.295Z,101765.75
2017-08-06T21:08:09.894Z,101759.34
2017-08-06T21:10:37.518Z,101757.82
2017-08-06T21:13:05.130Z,101756.98
2017-08-06T21:15:32.750Z,101762.50
2017-08-06T21:18:00.358Z,101761.81
2017-08-06T21:20:28.001Z,101756.73
2017-08-06T21:22:55.597Z,101757.61
2017-08-06T21:25:23.217Z,101754.09
2017-08-06T21:27:50.831Z,101755.88
2017-08-06T21:30:18.468Z,101749.48
2017-08-06T21:32:46.084Z,101752.41
2017-08-06T21:35:13.707Z,101752.26
2017-08-06T21:37:41.303Z,101757.50
2017-08-06T21:40:08.944Z,101754.50
2017-08-06T21:42:36.622Z,101756.41
2017-08-06T21:45:04.255Z,101755.94
2017-08-06T21:47:31.855Z,101757.55
2017-08-06T21:49:59.471Z,101760.28
2017-08-06T21:52:27.061Z,101759.75
2017-08-06T21:54:54.686Z,101754.30
2017-08-06T21:57:22.318Z,101752.39
2017-08-06T21:59:49.995Z,101757.77
2017-08-06T22:02:17.598Z,101754.99
2017-08-06T22:04:45.441Z,101756.16
2017-08-06T22:07:13.052Z,101758.03
2017-08-06T22:09:40.648Z,101766.69
2017-08-06T22:12:09.170Z,101757.11
2017-08-06T22:14:36.758Z,101766.54
2017-08-06T22:17:04.431Z,101761.58
2017-08-06T22:19:32.058Z,101764.26
2017-08-06T22:21:59.678Z,101760.92
2017-08-06T22:24:27.306Z,101755.83
2017-08-06T22:26:54.957Z,101757.30
2017-08-06T22:29:22.550Z,101757.05
2017-08-06T22:31:50.231Z,101751.78
2017-08-06T22:34:17.851Z,101755.51
2017-08-06T22:36:45.480Z,101757.52
2017-08-06T22:39:13.095Z,101756.68
2017-08-06T22:41:40.719Z,101759.30
2017-08-06T22:44:08.352Z,101754.04
2017-08-06T22:46:36.046Z,101751.39
2017-08-06T22:49:03.671Z,101753.28
2017-08-06T22:51:31.299Z,101751.56
2017-08-06T22:53:58.898Z,101751.97
2017-08-06T22:56:26.559Z,101749.83
2017-08-06T22:58:54.203Z,101746.25
2017-08-06T23:01:21.810Z,101741.81
2017-08-06T23:03:49.502Z,101736.14
2017-08-06T23:06:17.119Z,101741.68
2017-08-06T23:08:44.738Z,101737.80
2017-08-06T23:11:12.345Z,101736.69
2017-08-06T23:13:39.966Z,101732.05
2017-08-06T23:16:07.570Z,101739.45
2017-08-06T23:18:35.226Z,101730.92
2017-08-06T23:21:02.866Z,101732.66
2017-08-06T23:23:30.500Z,101735.14
2017-08-06T23:25:58.108Z,101732.41
2017-08-06T23:28:25.722Z,101727.94
2017-08-06T23:30:53.327Z,101729.03
2017-08-06T23:33:20.946Z,101727.73
2017-08-06T23:35:48.568Z,101724.98
2017-08-06T23:38:16.201Z,101723.02
2017-08-06T23:40:43.791Z,101725.59
2017-08-06T23:43:11.409Z,101715.86
2017-08-06T23:45:39.007Z,101717.06
2017-08-06T23:48:06.694Z,101716.59
2017-08-06T23:50:34.318Z,101713.77
2017-08-06T23:53:01.991Z,101709.55
2017-08-06T23:55:29.590Z,101698.50
2017-08-06T23:57:57.195Z,101701.72
